Big Oak Valley, California
Current Conditions -  °F | °C
As of 7:58 AM on Thursday 18 Dec 2014 (Local Time) from KBAB Reporting Station
Broken Clouds Broken Clouds  
Wind Chill: 50°   Ceiling: 18000
Heat Index: 50°   Visibility: 10mi
Dew Point: 47°   Wind: 3mph
Humidity: 88%   Direction: 90°E
Pressure: 30.16"   Gusts: NA
Location:  39.1816°N, 121.266°W
Report Text: KBAB 181558Z 09003KT 10SM FEW025 SCT070 SCT160 BKN180 10/08 A3016 RMK AO2A SLP290 T01010082 $
Loading
Personal Weather Stations






























Interactive Weather Map New forecast layout! Learn more

10-Day Weather Forecast

Advertisements
Track Severe Weather on mobile